createdAt,value
2022-12-24T00:01:20.444Z,9.02
2022-12-24T00:03:48.306Z,8.10
2022-12-24T00:06:22.660Z,5.75
2022-12-24T00:08:53.756Z,3.55
2022-12-24T00:11:22.026Z,4.97
2022-12-24T00:13:50.080Z,4.95
2022-12-24T00:16:17.892Z,5.95
2022-12-24T00:18:46.905Z,5.55
2022-12-24T00:21:15.952Z,4.55
2022-12-24T00:23:44.091Z,4.25
2022-12-24T00:26:13.114Z,4.18
2022-12-24T00:28:41.714Z,4.40
2022-12-24T00:31:15.251Z,7.82
2022-12-24T00:33:43.207Z,8.60
2022-12-24T00:36:10.926Z,6.13
2022-12-24T00:38:39.061Z,8.50
2022-12-24T00:41:25.382Z,8.13
2022-12-24T00:43:55.710Z,6.40
2022-12-24T00:46:24.921Z,5.55
2022-12-24T00:48:53.482Z,4.82
2022-12-24T00:51:22.277Z,7.38
2022-12-24T00:53:50.733Z,5.05
2022-12-24T00:56:19.039Z,4.45
2022-12-24T00:58:46.972Z,4.85
2022-12-24T01:01:14.782Z,6.50
2022-12-24T01:03:42.591Z,3.75
2022-12-24T01:06:19.763Z,3.95
2022-12-24T01:08:51.393Z,6.28
2022-12-24T01:11:19.578Z,3.67
2022-12-24T01:13:47.315Z,4.00
2022-12-24T01:16:21.060Z,5.20
2022-12-24T01:18:49.028Z,3.10
2022-12-24T01:21:17.524Z,3.50
2022-12-24T01:23:45.591Z,3.42
2022-12-24T01:26:13.472Z,3.65
2022-12-24T01:28:41.827Z,2.88
2022-12-24T01:31:17.896Z,5.47
2022-12-24T01:33:46.900Z,3.45
2022-12-24T01:36:15.345Z,3.17
2022-12-24T01:38:43.259Z,5.95
2022-12-24T01:41:38.563Z,6.28
2022-12-24T01:44:35.748Z,8.18
2022-12-24T01:47:19.734Z,3.30
2022-12-24T01:50:03.850Z,3.08
2022-12-24T01:52:35.737Z,4.63
2022-12-24T01:55:08.220Z,5.70
2022-12-24T01:57:41.843Z,3.10
2022-12-24T02:00:12.384Z,3.30
2022-12-24T02:02:44.542Z,2.72
2022-12-24T02:05:17.186Z,3.67
2022-12-24T02:07:45.836Z,2.80
2022-12-24T02:10:14.665Z,2.58
2022-12-24T02:12:43.995Z,2.35
2022-12-24T02:15:14.190Z,1.63
2022-12-24T02:18:05.275Z,2.45
2022-12-24T02:21:17.798Z,2.65
2022-12-24T02:24:23.296Z,1.65
2022-12-24T02:27:14.050Z,1.80
2022-12-24T02:30:10.583Z,2.10
2022-12-24T02:33:22.957Z,1.33
2022-12-24T02:35:59.416Z,11.70
2022-12-24T02:38:37.330Z,2.53
2022-12-24T02:41:18.449Z,2.03
2022-12-24T02:43:48.806Z,1.83
2022-12-24T02:46:23.205Z,3.70
2022-12-24T02:48:51.435Z,2.10
2022-12-24T02:51:24.412Z,3.10
2022-12-24T02:53:52.344Z,6.05
2022-12-24T02:56:40.466Z,9.73
2022-12-24T02:59:34.430Z,12.20
2022-12-24T03:02:19.730Z,63.15
2022-12-24T03:04:52.450Z,61.80
2022-12-24T03:07:35.047Z,113.22
2022-12-24T03:10:15.485Z,199.30
2022-12-24T03:13:00.478Z,232.93
2022-12-24T03:15:29.998Z,93.32
2022-12-24T03:18:00.596Z,240.40
2022-12-24T03:20:35.979Z,146.35
2022-12-24T03:23:04.978Z,177.25
2022-12-24T03:25:34.572Z,67.30
2022-12-24T03:28:05.179Z,44.80
2022-12-24T03:30:33.960Z,135.07
2022-12-24T03:33:01.952Z,62.75
2022-12-24T03:35:29.652Z,94.97
2022-12-24T03:37:57.294Z,41.25
2022-12-24T03:40:24.964Z,46.50
2022-12-24T03:42:53.354Z,36.90
2022-12-24T03:45:21.681Z,240.25
2022-12-24T03:47:49.569Z,106.43
2022-12-24T03:50:20.456Z,77.97
2022-12-24T03:52:48.152Z,64.30
2022-12-24T03:55:16.227Z,76.55
2022-12-24T03:57:44.344Z,38.50
2022-12-24T04:00:12.839Z,25.25
2022-12-24T04:02:40.802Z,62.95
2022-12-24T04:05:09.342Z,56.13
2022-12-24T04:07:39.574Z,43.85
2022-12-24T04:10:07.824Z,71.32
2022-12-24T04:12:35.800Z,129.82
2022-12-24T04:15:04.515Z,368.73
2022-12-24T04:17:32.831Z,199.93
2022-12-24T04:20:00.957Z,207.57
2022-12-24T04:22:28.718Z,217.68
2022-12-24T04:24:56.622Z,108.05
2022-12-24T04:27:30.096Z,223.25
2022-12-24T04:29:58.991Z,163.20
2022-12-24T04:32:27.381Z,61.05
2022-12-24T04:34:55.262Z,112.50
2022-12-24T04:37:23.018Z,62.83
2022-12-24T04:39:50.798Z,66.07
2022-12-24T04:42:19.542Z,107.05
2022-12-24T04:44:47.233Z,85.80
2022-12-24T04:47:14.908Z,55.53
2022-12-24T04:49:43.029Z,43.47
2022-12-24T04:52:11.944Z,64.45
2022-12-24T04:54:45.163Z,60.92
2022-12-24T04:57:13.797Z,32.58
2022-12-24T04:59:41.450Z,27.15
2022-12-24T05:02:09.294Z,22.95
2022-12-24T05:04:37.161Z,22.83
2022-12-24T05:07:05.049Z,78.50
2022-12-24T05:09:32.882Z,103.85
2022-12-24T05:12:00.659Z,97.72
2022-12-24T05:14:28.443Z,38.55
2022-12-24T05:16:56.173Z,59.88
2022-12-24T05:19:24.648Z,64.60
2022-12-24T05:22:11.305Z,104.93
2022-12-24T05:25:03.326Z,94.20
2022-12-24T05:27:31.736Z,81.65
2022-12-24T05:29:59.548Z,136.00
2022-12-24T05:32:28.770Z,120.90
2022-12-24T05:34:56.614Z,151.75
2022-12-24T05:37:24.331Z,147.52
2022-12-24T05:39:52.115Z,73.75
2022-12-24T05:42:22.535Z,89.20
2022-12-24T05:44:51.006Z,180.73
2022-12-24T05:47:18.677Z,87.15
2022-12-24T05:49:46.564Z,47.40
2022-12-24T05:52:14.255Z,70.50
2022-12-24T05:54:42.115Z,67.07
2022-12-24T05:57:09.850Z,36.97
2022-12-24T05:59:37.503Z,96.72
2022-12-24T06:02:05.190Z,138.60
2022-12-24T06:04:34.105Z,94.53
2022-12-24T06:07:01.768Z,144.80
2022-12-24T06:09:29.383Z,113.40
2022-12-24T06:11:59.428Z,85.85
2022-12-24T06:14:27.121Z,49.28
2022-12-24T06:16:54.776Z,32.90
2022-12-24T06:19:22.888Z,35.03
2022-12-24T06:21:50.710Z,51.88
2022-12-24T06:24:18.368Z,26.42
2022-12-24T06:26:46.287Z,4.97
2022-12-24T06:29:17.050Z,7.20
2022-12-24T06:31:44.697Z,4.63
2022-12-24T06:34:12.393Z,13.27
2022-12-24T06:36:40.102Z,3.78
2022-12-24T06:39:08.157Z,4.80
2022-12-24T06:41:35.954Z,3.67
2022-12-24T06:44:04.027Z,4.22
2022-12-24T06:46:31.909Z,6.90
2022-12-24T06:49:01.065Z,7.30
2022-12-24T06:51:28.789Z,209.52
2022-12-24T06:53:56.597Z,16.38
2022-12-24T06:56:24.447Z,4.22
2022-12-24T06:58:52.152Z,11.85
2022-12-24T07:01:21.506Z,11.02
2022-12-24T07:03:49.471Z,8.85
2022-12-24T07:06:26.095Z,14.50
2022-12-24T07:08:54.035Z,13.95
2022-12-24T07:11:23.575Z,9.07
2022-12-24T07:13:51.409Z,14.45
2022-12-24T07:16:19.306Z,14.75
2022-12-24T07:18:47.938Z,16.65
2022-12-24T07:21:15.608Z,14.05
2022-12-24T07:23:43.337Z,12.25
2022-12-24T07:26:11.015Z,11.77
2022-12-24T07:28:38.834Z,22.85
2022-12-24T07:31:06.655Z,14.80
2022-12-24T07:33:34.692Z,21.50
2022-12-24T07:36:07.891Z,9.15
2022-12-24T07:38:38.935Z,11.10
2022-12-24T07:41:06.823Z,18.83
2022-12-24T07:43:38.058Z,22.50
2022-12-24T07:46:06.674Z,12.68
2022-12-24T07:48:34.593Z,9.55
2022-12-24T07:51:05.709Z,6.97
2022-12-24T07:53:35.065Z,6.70
2022-12-24T07:56:07.519Z,13.43
2022-12-24T07:58:38.350Z,6.47
2022-12-24T08:01:06.352Z,10.30
2022-12-24T08:03:34.486Z,10.38
2022-12-24T08:06:02.300Z,13.38
2022-12-24T08:08:33.069Z,10.43
2022-12-24T08:11:03.028Z,6.25
2022-12-24T08:13:31.556Z,5.10
2022-12-24T08:15:59.732Z,5.28
2022-12-24T08:18:27.461Z,9.23
2022-12-24T08:20:55.290Z,6.32
2022-12-24T08:23:23.445Z,4.05
2022-12-24T08:25:51.402Z,1.67
2022-12-24T08:28:20.654Z,7.18
2022-12-24T08:30:50.726Z,10.20
2022-12-24T08:33:19.234Z,0.88
2022-12-24T08:35:52.800Z,7.95
2022-12-24T08:38:22.253Z,1.92
2022-12-24T08:40:50.479Z,6.28
2022-12-24T08:43:21.462Z,1.30
2022-12-24T08:45:50.119Z,2.28
2022-12-24T08:48:18.110Z,1.90
2022-12-24T08:50:45.858Z,1.67
2022-12-24T08:53:13.844Z,2.70
2022-12-24T08:55:42.511Z,9.45
2022-12-24T08:58:10.158Z,4.18
2022-12-24T09:00:40.914Z,7.55
2022-12-24T09:03:14.293Z,25.25
2022-12-24T09:05:42.451Z,9.98
2022-12-24T09:08:10.176Z,9.30
2022-12-24T09:10:38.115Z,14.32
2022-12-24T09:13:05.868Z,5.95
2022-12-24T09:15:37.088Z,17.58
2022-12-24T09:18:05.111Z,12.27
2022-12-24T09:20:32.719Z,23.25
2022-12-24T09:23:00.505Z,17.55
2022-12-24T09:25:28.388Z,10.27
2022-12-24T09:27:56.207Z,1.50
2022-12-24T09:30:23.934Z,4.75
2022-12-24T09:32:52.329Z,4.50
2022-12-24T09:35:20.171Z,23.45
2022-12-24T09:37:47.807Z,3.75
2022-12-24T09:40:30.574Z,18.45
2022-12-24T09:42:58.269Z,2.03
2022-12-24T09:45:35.125Z,2.42
2022-12-24T09:48:17.236Z,0.82
2022-12-24T09:50:56.929Z,3.85
2022-12-24T09:53:55.480Z,1.75
2022-12-24T09:56:30.838Z,1.05
2022-12-24T09:59:04.664Z,1.65
2022-12-24T10:01:35.603Z,1.02
2022-12-24T10:04:11.412Z,0.30
2022-12-24T10:06:53.830Z,0.20
2022-12-24T10:10:15.738Z,0.30
2022-12-24T10:13:16.832Z,0.47
2022-12-24T10:15:58.373Z,0.22
2022-12-24T10:18:33.021Z,0.70
2022-12-24T10:21:16.867Z,1.40
2022-12-24T10:24:01.097Z,0.40
2022-12-24T10:26:47.037Z,2.05
2022-12-24T10:29:40.814Z,2.15
2022-12-24T10:32:17.586Z,0.25
2022-12-24T10:35:17.260Z,0.93
2022-12-24T10:37:49.188Z,1.05
2022-12-24T10:40:40.716Z,0.40
2022-12-24T10:43:20.830Z,0.35
2022-12-24T10:46:06.468Z,0.52
2022-12-24T10:48:46.443Z,0.90
2022-12-24T10:51:43.877Z,0.30
2022-12-24T10:54:26.199Z,0.40
2022-12-24T10:57:02.786Z,2.72
2022-12-24T10:59:54.279Z,4.45
2022-12-24T11:02:35.180Z,0.60
2022-12-24T11:05:07.842Z,0.40
2022-12-24T11:07:36.201Z,0.50
2022-12-24T11:10:08.074Z,0.30
2022-12-24T11:12:43.611Z,0.57
2022-12-24T11:15:34.605Z,4.50
2022-12-24T11:18:14.826Z,0.80
2022-12-24T11:20:51.701Z,0.85
2022-12-24T11:23:23.077Z,0.10
2022-12-24T11:25:52.057Z,0.00
2022-12-24T11:28:33.926Z,0.10
2022-12-24T11:31:19.640Z,0.50
2022-12-24T11:33:51.004Z,1.75
2022-12-24T11:36:24.211Z,5.50
2022-12-24T11:38:57.860Z,0.90
2022-12-24T11:41:26.973Z,0.10
2022-12-24T11:44:03.966Z,0.20
2022-12-24T11:46:53.358Z,0.03
2022-12-24T11:49:31.264Z,0.10
2022-12-24T11:52:23.649Z,8.18
2022-12-24T11:55:03.589Z,0.20
2022-12-24T11:58:02.799Z,0.17
2022-12-24T12:00:30.825Z,0.45
2022-12-24T12:03:02.842Z,0.10
2022-12-24T12:05:41.282Z,0.22
2022-12-24T12:08:20.383Z,0.20
2022-12-24T12:10:52.098Z,1.30
2022-12-24T12:13:27.250Z,0.10
2022-12-24T12:16:08.244Z,0.17
2022-12-24T12:18:39.701Z,0.15
2022-12-24T12:21:19.285Z,0.43
2022-12-24T12:23:52.125Z,0.45
2022-12-24T12:26:29.558Z,0.60
2022-12-24T12:29:02.249Z,0.20
2022-12-24T12:31:44.082Z,0.20
2022-12-24T12:34:18.035Z,0.08
2022-12-24T12:36:57.569Z,0.00
2022-12-24T12:39:30.896Z,0.20
2022-12-24T12:42:24.662Z,0.30
2022-12-24T12:44:55.125Z,0.05
2022-12-24T12:47:51.569Z,0.10
2022-12-24T12:50:28.033Z,1.15
2022-12-24T12:53:19.885Z,0.57
2022-12-24T12:56:24.099Z,0.10
2022-12-24T12:59:08.452Z,0.20
2022-12-24T13:01:58.714Z,0.00
2022-12-24T13:04:41.761Z,0.20
2022-12-24T13:07:15.483Z,0.40
2022-12-24T13:09:48.923Z,0.52
2022-12-24T13:12:27.400Z,1.08
2022-12-24T13:15:24.981Z,0.32
2022-12-24T13:18:07.129Z,2.97
2022-12-24T13:20:40.795Z,0.40
2022-12-24T13:23:14.320Z,1.50
2022-12-24T13:25:45.482Z,0.85
2022-12-24T13:28:25.446Z,11.90
2022-12-24T13:31:13.690Z,5.05
2022-12-24T13:33:41.249Z,2.95
2022-12-24T13:36:16.734Z,2.20
2022-12-24T13:38:57.821Z,0.93
2022-12-24T13:41:41.076Z,2.28
2022-12-24T13:44:15.371Z,1.58
2022-12-24T13:47:01.200Z,3.88
2022-12-24T13:49:41.424Z,2.10
2022-12-24T13:52:12.060Z,2.53
2022-12-24T13:54:44.146Z,1.88
2022-12-24T13:57:38.201Z,3.13
2022-12-24T14:00:24.966Z,1.92
2022-12-24T14:02:58.937Z,0.95
2022-12-24T14:06:01.317Z,2.20
2022-12-24T14:08:42.449Z,3.97
2022-12-24T14:11:17.422Z,2.53
2022-12-24T14:13:47.712Z,1.43
2022-12-24T14:16:21.366Z,0.90
2022-12-24T14:19:00.293Z,1.13
2022-12-24T14:21:43.918Z,1.85
2022-12-24T14:24:17.710Z,3.15
2022-12-24T14:26:58.820Z,3.13
2022-12-24T14:29:56.982Z,5.07
2022-12-24T14:32:24.672Z,1.50
2022-12-24T14:35:21.396Z,0.88
2022-12-24T14:37:58.785Z,1.20
2022-12-24T14:40:28.791Z,2.47
2022-12-24T14:43:14.302Z,1.98
2022-12-24T14:46:26.697Z,2.13
2022-12-24T14:48:59.015Z,1.65
2022-12-24T14:51:53.726Z,1.15
2022-12-24T14:54:40.450Z,0.93
2022-12-24T14:57:11.091Z,1.70
2022-12-24T14:59:59.863Z,1.52
2022-12-24T15:02:45.858Z,1.60
2022-12-24T15:05:31.281Z,6.18
2022-12-24T15:08:04.233Z,1.00
2022-12-24T15:10:36.748Z,1.45
2022-12-24T15:13:09.360Z,4.25
2022-12-24T15:15:50.028Z,2.22
2022-12-24T15:18:24.043Z,1.38
2022-12-24T15:21:04.114Z,1.92
2022-12-24T15:23:36.593Z,3.67
2022-12-24T15:26:20.506Z,5.38
2022-12-24T15:28:48.790Z,10.85
2022-12-24T15:31:22.341Z,4.90
2022-12-24T15:34:01.770Z,2.67
2022-12-24T15:36:35.968Z,4.35
2022-12-24T15:39:14.191Z,2.90
2022-12-24T15:42:03.888Z,4.45
2022-12-24T15:44:37.727Z,4.03
2022-12-24T15:47:08.842Z,2.92
2022-12-24T15:49:36.967Z,9.38
2022-12-24T15:52:17.413Z,8.77
2022-12-24T15:54:52.316Z,5.93
2022-12-24T15:57:33.515Z,6.18
2022-12-24T16:00:02.528Z,7.85
2022-12-24T16:02:34.358Z,4.57
2022-12-24T16:05:37.091Z,4.55
2022-12-24T16:08:13.734Z,3.42
2022-12-24T16:10:48.249Z,4.55
2022-12-24T16:13:30.687Z,4.03
2022-12-24T16:16:12.393Z,35.65
2022-12-24T16:18:49.505Z,16.45
2022-12-24T16:21:25.368Z,6.78
2022-12-24T16:24:07.085Z,13.43
2022-12-24T16:26:38.461Z,14.00
2022-12-24T16:29:06.109Z,18.63
2022-12-24T16:31:43.222Z,7.80
2022-12-24T16:34:14.945Z,9.70
2022-12-24T16:36:44.104Z,9.15
2022-12-24T16:39:26.763Z,11.32
2022-12-24T16:42:15.339Z,13.13
2022-12-24T16:44:43.785Z,8.40
2022-12-24T16:47:31.128Z,11.18
2022-12-24T16:50:02.706Z,12.80
2022-12-24T16:52:33.785Z,11.52
2022-12-24T16:55:02.055Z,10.48
2022-12-24T16:57:29.765Z,13.57
2022-12-24T16:59:57.429Z,15.48
2022-12-24T17:02:25.507Z,11.05
2022-12-24T17:04:53.279Z,11.27
2022-12-24T17:07:22.274Z,10.82
2022-12-24T17:09:49.940Z,14.98
2022-12-24T17:12:17.542Z,13.27
2022-12-24T17:14:45.104Z,9.95
2022-12-24T17:17:24.540Z,12.82
2022-12-24T17:19:52.164Z,12.05
2022-12-24T17:22:20.174Z,8.35
2022-12-24T17:24:47.827Z,13.73
2022-12-24T17:27:16.136Z,9.95
2022-12-24T17:29:43.751Z,14.93
2022-12-24T17:32:11.487Z,13.75
2022-12-24T17:34:39.306Z,13.10
2022-12-24T17:37:07.114Z,14.70
2022-12-24T17:39:34.754Z,13.95
2022-12-24T17:42:02.385Z,10.90
2022-12-24T17:44:30.370Z,12.45
2022-12-24T17:46:58.178Z,16.75
2022-12-24T17:49:25.856Z,13.07
2022-12-24T17:51:53.505Z,16.13
2022-12-24T17:54:21.082Z,15.52
2022-12-24T17:56:48.777Z,15.55
2022-12-24T17:59:16.501Z,22.15
2022-12-24T18:01:44.298Z,18.83
2022-12-24T18:04:11.919Z,18.23
2022-12-24T18:06:44.322Z,16.65
2022-12-24T18:09:14.943Z,21.50
2022-12-24T18:11:42.591Z,17.92
2022-12-24T18:14:14.074Z,24.17
2022-12-24T18:16:42.710Z,20.13
2022-12-24T18:19:11.914Z,19.80
2022-12-24T18:21:39.885Z,20.92
2022-12-24T18:24:07.980Z,17.15
2022-12-24T18:26:35.708Z,18.45
2022-12-24T18:29:08.533Z,13.15
2022-12-24T18:31:37.028Z,22.70
2022-12-24T18:34:07.211Z,13.38
2022-12-24T18:36:35.037Z,15.90
2022-12-24T18:39:02.818Z,35.17
2022-12-24T18:41:31.243Z,28.73
2022-12-24T18:43:59.623Z,26.05
2022-12-24T18:46:30.459Z,19.73
2022-12-24T18:48:59.745Z,20.65
2022-12-24T18:51:31.009Z,22.63
2022-12-24T18:53:58.753Z,21.50
2022-12-24T18:56:27.141Z,16.27
2022-12-24T18:59:02.823Z,12.75
2022-12-24T19:01:34.743Z,12.15
2022-12-24T19:04:03.378Z,11.40
2022-12-24T19:06:31.030Z,15.48
2022-12-24T19:09:00.605Z,16.75
2022-12-24T19:11:33.903Z,18.02
2022-12-24T19:14:03.439Z,17.25
2022-12-24T19:16:34.684Z,21.98
2022-12-24T19:19:04.337Z,13.15
2022-12-24T19:21:32.539Z,11.40
2022-12-24T19:24:00.121Z,11.98
2022-12-24T19:26:27.886Z,15.05
2022-12-24T19:28:55.483Z,12.77
2022-12-24T19:31:26.462Z,17.25
2022-12-24T19:33:57.688Z,13.82
2022-12-24T19:36:28.541Z,10.57
2022-12-24T19:38:57.331Z,13.43
2022-12-24T19:41:27.722Z,14.73
2022-12-24T19:43:57.267Z,24.77
2022-12-24T19:46:31.356Z,20.45
2022-12-24T19:49:01.490Z,21.90
2022-12-24T19:51:29.595Z,29.85
2022-12-24T19:53:58.849Z,21.13
2022-12-24T19:56:28.291Z,13.43
2022-12-24T19:58:57.558Z,20.02
2022-12-24T20:01:28.060Z,14.02
2022-12-24T20:03:56.499Z,15.75
2022-12-24T20:06:27.433Z,17.73
2022-12-24T20:09:08.042Z,13.57
2022-12-24T20:11:36.253Z,9.88
2022-12-24T20:14:05.198Z,12.38
2022-12-24T20:16:34.034Z,10.05
2022-12-24T20:19:03.790Z,12.27
2022-12-24T20:21:32.293Z,11.27
2022-12-24T20:24:00.401Z,16.70
2022-12-24T20:26:29.285Z,19.30
2022-12-24T20:28:57.055Z,13.77
2022-12-24T20:31:28.683Z,16.42
2022-12-24T20:33:58.087Z,11.27
2022-12-24T20:36:27.645Z,13.65
2022-12-24T20:38:57.684Z,10.55
2022-12-24T20:41:27.665Z,11.40
2022-12-24T20:43:58.373Z,20.88
2022-12-24T20:46:26.389Z,7.93
2022-12-24T20:48:56.038Z,11.30
2022-12-24T20:51:26.843Z,12.70
2022-12-24T20:53:57.215Z,9.75
2022-12-24T20:56:25.811Z,8.23
2022-12-24T20:58:53.583Z,10.45
2022-12-24T21:01:26.855Z,6.03
2022-12-24T21:03:56.033Z,6.30
2022-12-24T21:06:24.865Z,5.65
2022-12-24T21:08:53.475Z,7.45
2022-12-24T21:11:40.517Z,6.72
2022-12-24T21:14:08.527Z,5.55
2022-12-24T21:16:37.269Z,8.55
2022-12-24T21:19:06.597Z,10.23
2022-12-24T21:21:35.306Z,7.65
2022-12-24T21:24:04.703Z,5.30
2022-12-24T21:26:33.219Z,6.60
2022-12-24T21:29:01.625Z,7.55
2022-12-24T21:31:29.409Z,5.45
2022-12-24T21:33:57.614Z,8.77
2022-12-24T21:36:25.617Z,10.48
2022-12-24T21:38:54.613Z,11.98
2022-12-24T21:41:26.137Z,12.38
2022-12-24T21:43:53.821Z,10.27
2022-12-24T21:46:25.088Z,7.13
2022-12-24T21:49:13.526Z,4.55
2022-12-24T21:51:43.376Z,5.78
2022-12-24T21:54:31.267Z,5.20
2022-12-24T21:57:23.040Z,4.53
2022-12-24T21:59:52.136Z,4.72
2022-12-24T22:02:23.019Z,11.20
2022-12-24T22:04:50.785Z,3.95
2022-12-24T22:07:46.703Z,8.05
2022-12-24T22:10:33.685Z,6.60
2022-12-24T22:13:07.337Z,5.35
2022-12-24T22:15:37.690Z,4.75
2022-12-24T22:18:07.848Z,16.15
2022-12-24T22:20:37.413Z,12.90
2022-12-24T22:23:06.175Z,11.10
2022-12-24T22:25:34.885Z,13.52
2022-12-24T22:28:03.907Z,11.52
2022-12-24T22:30:31.639Z,7.35
2022-12-24T22:32:59.554Z,9.20
2022-12-24T22:35:27.761Z,5.90
2022-12-24T22:38:00.150Z,2.95
2022-12-24T22:40:28.675Z,3.25
2022-12-24T22:42:56.299Z,7.00
2022-12-24T22:45:23.912Z,5.68
2022-12-24T22:47:51.528Z,2.72
2022-12-24T22:50:19.118Z,3.97
2022-12-24T22:52:46.687Z,4.30
2022-12-24T22:55:14.255Z,3.42
2022-12-24T22:57:42.130Z,4.45
2022-12-24T23:00:15.401Z,5.15
2022-12-24T23:02:43.136Z,2.53
2022-12-24T23:05:14.990Z,3.30
2022-12-24T23:07:42.672Z,8.10
2022-12-24T23:10:10.396Z,5.10
2022-12-24T23:12:56.486Z,4.32
2022-12-24T23:15:24.081Z,5.30
2022-12-24T23:17:51.585Z,7.65
2022-12-24T23:20:19.148Z,12.43
2022-12-24T23:22:47.495Z,7.65
2022-12-24T23:25:15.021Z,8.52
2022-12-24T23:27:42.594Z,12.27
2022-12-24T23:30:10.458Z,5.13
2022-12-24T23:32:38.126Z,5.28
2022-12-24T23:35:06.203Z,4.53
2022-12-24T23:37:35.397Z,3.65
2022-12-24T23:40:04.216Z,4.55
2022-12-24T23:42:31.748Z,4.75
2022-12-24T23:44:59.401Z,5.05
2022-12-24T23:47:27.637Z,6.90
2022-12-24T23:49:55.190Z,2.83
2022-12-24T23:52:22.836Z,5.68
2022-12-24T23:54:50.465Z,3.25
2022-12-24T23:57:18.147Z,3.42
2022-12-24T23:59:45.850Z,5.55
